Decoded Metar for LETL (TERUEL in SPAIN) (IATA:N/A) | Meteo·Mobile Aviation Weather
aviador You're here:

LETL Decoded Metar

TERUEL in SPAIN
Report Time2019-02-23 08:30:00
UTC Time2019-02-23 08:45:04
Flight Rules vfr VFR
WindVRB at 01 kt
Visibility9999 m
Phenomena:N/A
Clouds:N/A
Expected CloudBase > 4,000 ft AGL from Temp-Dew spread
CeilingNone
Temp03°C (ISA -5)
Dew Point-7°C (48% RH)
AAT-0.2°C
QNH1031 hPa
Density Alt2,182 ft
Elevation3,367 ft
Report Wrong Elevation
Raw Report
METAR LETL 230830Z AUTO VRB01KT 9999 NCD 03/M07 Q1031=

Extra information for LETL:More info

Metar Taf Metar & Taf Last 4 Metars F.Rules Stats Wind Profile Meteogram Temp Stats Airport Information Weather charts Add Link Nearby VenuesMetar ALERT Operation Metar Decoded Social comments